createdAt,value
2023-01-17T00:00:54.336Z,0.90
2023-01-17T00:03:21.805Z,0.70
2023-01-17T00:06:07.332Z,0.98
2023-01-17T00:08:53.001Z,0.85
2023-01-17T00:11:19.741Z,0.80
2023-01-17T00:13:46.427Z,1.15
2023-01-17T00:16:13.352Z,0.90
2023-01-17T00:19:01.265Z,0.73
2023-01-17T00:21:46.998Z,0.88
2023-01-17T00:24:32.335Z,0.80
2023-01-17T00:27:16.553Z,0.80
2023-01-17T00:29:43.253Z,0.80
2023-01-17T00:32:09.974Z,0.90
2023-01-17T00:34:36.659Z,0.80
2023-01-17T00:37:08.281Z,0.80
2023-01-17T00:39:34.951Z,0.70
2023-01-17T00:42:01.605Z,0.85
2023-01-17T00:44:46.807Z,0.80
2023-01-17T00:47:33.940Z,0.63
2023-01-17T00:50:19.445Z,0.60
2023-01-17T00:53:04.870Z,0.90
2023-01-17T00:55:52.953Z,0.95
2023-01-17T00:58:39.677Z,0.90
2023-01-17T01:01:26.085Z,0.90
2023-01-17T01:04:11.326Z,0.70
2023-01-17T01:06:56.928Z,0.88
2023-01-17T01:09:42.373Z,0.80
2023-01-17T01:12:27.873Z,0.77
2023-01-17T01:15:13.396Z,0.80
2023-01-17T01:18:00.244Z,0.90
2023-01-17T01:20:45.840Z,0.85
2023-01-17T01:23:31.127Z,0.80
2023-01-17T01:26:16.679Z,0.88
2023-01-17T01:29:01.878Z,1.00
2023-01-17T01:31:48.807Z,1.00
2023-01-17T01:34:15.975Z,0.88
2023-01-17T01:36:42.656Z,1.13
2023-01-17T01:39:09.999Z,0.90
2023-01-17T01:41:36.786Z,0.75
2023-01-17T01:44:03.685Z,1.27
2023-01-17T01:46:38.347Z,0.85
2023-01-17T01:49:25.798Z,1.13
2023-01-17T01:51:58.520Z,1.23
2023-01-17T01:54:34.816Z,1.30
2023-01-17T01:57:05.135Z,1.05
2023-01-17T01:59:33.856Z,0.98
2023-01-17T02:02:01.386Z,1.08
2023-01-17T02:04:29.168Z,1.20
2023-01-17T02:07:03.077Z,1.58
2023-01-17T02:09:31.073Z,1.13
2023-01-17T02:11:58.037Z,1.23
2023-01-17T02:14:27.150Z,1.10
2023-01-17T02:17:37.725Z,1.00
2023-01-17T02:24:11.877Z,1.13
2023-01-17T02:37:17.470Z,0.75
2023-01-17T02:40:06.501Z,1.20
2023-01-17T02:42:45.567Z,1.05
2023-01-17T02:45:20.322Z,0.88
2023-01-17T02:47:47.626Z,0.80
2023-01-17T02:50:38.421Z,0.95
2023-01-17T02:53:31.110Z,0.88
2023-01-17T02:56:39.577Z,1.35
2023-01-17T03:00:00.158Z,1.10
2023-01-17T03:02:58.413Z,0.80
2023-01-17T03:05:41.509Z,1.25
2023-01-17T03:08:09.168Z,1.00
2023-01-17T03:10:36.711Z,1.13
2023-01-17T03:13:04.459Z,0.80
2023-01-17T03:15:32.529Z,0.93
2023-01-17T03:18:05.125Z,1.00
2023-01-17T03:20:31.831Z,1.13
2023-01-17T03:22:58.529Z,0.95
2023-01-17T03:25:25.463Z,0.77
2023-01-17T03:27:52.161Z,0.93
2023-01-17T03:30:20.454Z,1.00
2023-01-17T03:32:49.388Z,1.02
2023-01-17T03:35:16.435Z,1.15
2023-01-17T03:37:43.164Z,1.20
2023-01-17T03:40:10.296Z,1.30
2023-01-17T03:42:37.011Z,1.25
2023-01-17T03:45:05.142Z,0.95
2023-01-17T03:47:32.930Z,1.30
2023-01-17T03:49:59.653Z,0.90
2023-01-17T03:52:26.332Z,0.95
2023-01-17T03:54:53.054Z,1.35
2023-01-17T03:57:20.024Z,1.50
2023-01-17T03:59:47.536Z,1.17
2023-01-17T04:02:14.568Z,1.20
2023-01-17T04:04:42.723Z,1.50
2023-01-17T04:07:10.901Z,1.05
2023-01-17T04:09:37.972Z,1.00
2023-01-17T04:12:04.793Z,1.58
2023-01-17T04:14:31.947Z,1.27
2023-01-17T04:16:59.350Z,1.30
2023-01-17T04:19:27.720Z,1.42
2023-01-17T04:21:54.475Z,1.90
2023-01-17T04:24:21.192Z,1.95
2023-01-17T04:26:49.134Z,1.60
2023-01-17T04:29:16.103Z,1.50
2023-01-17T04:31:42.903Z,1.30
2023-01-17T04:34:09.773Z,1.50
2023-01-17T04:36:37.508Z,3.55
2023-01-17T04:39:05.472Z,1.50
2023-01-17T04:41:32.603Z,1.50
2023-01-17T04:44:01.656Z,1.83
2023-01-17T04:46:28.591Z,1.75
2023-01-17T04:48:56.447Z,1.67
2023-01-17T04:51:23.691Z,1.45
2023-01-17T04:53:50.789Z,1.70
2023-01-17T04:56:20.529Z,1.60
2023-01-17T04:58:47.288Z,1.80
2023-01-17T05:01:14.538Z,1.92
2023-01-17T05:03:41.311Z,2.00
2023-01-17T05:06:08.072Z,1.98
2023-01-17T05:08:36.209Z,2.13
2023-01-17T05:11:03.199Z,1.92
2023-01-17T05:13:29.896Z,1.73
2023-01-17T05:15:58.655Z,1.95
2023-01-17T05:18:25.665Z,2.00
2023-01-17T05:20:53.398Z,1.80
2023-01-17T05:23:21.241Z,2.38
2023-01-17T05:25:48.035Z,2.20
2023-01-17T05:28:14.891Z,2.13
2023-01-17T05:30:41.779Z,1.98
2023-01-17T05:33:10.259Z,1.95
2023-01-17T05:35:37.297Z,1.98
2023-01-17T05:38:04.160Z,1.65
2023-01-17T05:40:33.104Z,2.00
2023-01-17T05:43:01.162Z,1.80
2023-01-17T05:45:30.050Z,1.75
2023-01-17T05:47:57.969Z,2.15
2023-01-17T05:50:28.132Z,3.15
2023-01-17T05:52:59.069Z,2.90
2023-01-17T05:55:28.273Z,2.25
2023-01-17T05:57:56.510Z,1.88
2023-01-17T06:00:24.403Z,2.10
2023-01-17T06:02:54.282Z,2.08
2023-01-17T06:05:21.889Z,1.95
2023-01-17T06:07:49.669Z,1.92
2023-01-17T06:10:20.893Z,1.98
2023-01-17T06:12:48.505Z,2.05
2023-01-17T06:15:18.017Z,2.20
2023-01-17T06:17:44.793Z,2.42
2023-01-17T06:20:12.962Z,1.98
2023-01-17T06:22:39.806Z,2.20
2023-01-17T06:25:12.587Z,2.13
2023-01-17T06:27:39.332Z,2.00
2023-01-17T06:30:06.901Z,1.90
2023-01-17T06:32:33.679Z,2.28
2023-01-17T06:35:03.764Z,2.30
2023-01-17T06:37:30.509Z,2.03
2023-01-17T06:39:57.252Z,2.60
2023-01-17T06:42:24.038Z,2.40
2023-01-17T06:44:50.974Z,3.20
2023-01-17T06:47:17.855Z,2.90
2023-01-17T06:49:44.632Z,2.65
2023-01-17T06:52:11.340Z,3.15
2023-01-17T06:54:38.109Z,2.90
2023-01-17T06:57:06.786Z,2.65
2023-01-17T06:59:35.691Z,3.10
2023-01-17T07:02:02.489Z,3.28
2023-01-17T07:04:29.405Z,5.82
2023-01-17T07:06:57.343Z,6.75
2023-01-17T07:09:25.566Z,3.78
2023-01-17T07:11:59.628Z,3.13
2023-01-17T07:16:53.030Z,3.10
2023-01-17T07:19:19.800Z,3.08
2023-01-17T07:21:46.728Z,3.40
2023-01-17T07:24:13.442Z,3.00
2023-01-17T07:26:41.259Z,3.17
2023-01-17T07:29:08.435Z,3.40
2023-01-17T07:31:38.462Z,4.05
2023-01-17T07:34:05.238Z,3.75
2023-01-17T07:36:32.008Z,3.72
2023-01-17T07:38:59.438Z,3.25
2023-01-17T07:41:26.383Z,3.78
2023-01-17T07:43:55.493Z,3.50
2023-01-17T07:46:23.768Z,3.95
2023-01-17T07:48:50.592Z,3.72
2023-01-17T07:51:20.284Z,3.13
2023-01-17T07:53:47.003Z,2.78
2023-01-17T07:56:15.143Z,2.95
2023-01-17T07:58:43.259Z,3.22
2023-01-17T08:01:15.612Z,3.88
2023-01-17T08:03:42.997Z,3.42
2023-01-17T08:06:24.514Z,3.67
2023-01-17T08:08:51.721Z,3.47
2023-01-17T08:11:18.564Z,3.28
2023-01-17T08:13:47.769Z,3.20
2023-01-17T08:16:15.963Z,3.50
2023-01-17T08:18:42.644Z,3.30
2023-01-17T08:21:16.566Z,3.30
2023-01-17T08:23:47.181Z,4.18
2023-01-17T08:26:22.108Z,3.50
2023-01-17T08:28:57.270Z,3.30
2023-01-17T08:31:25.091Z,3.97
2023-01-17T08:33:51.822Z,3.40
2023-01-17T08:36:18.806Z,3.15
2023-01-17T08:38:45.544Z,3.35
2023-01-17T08:41:13.082Z,3.47
2023-01-17T08:43:39.886Z,3.42
2023-01-17T08:46:06.869Z,3.20
2023-01-17T08:48:33.772Z,3.40
2023-01-17T08:51:02.238Z,3.83
2023-01-17T08:53:29.240Z,3.95
2023-01-17T08:56:03.481Z,3.33
2023-01-17T08:58:32.600Z,3.17
2023-01-17T09:01:03.445Z,3.72
2023-01-17T09:03:31.334Z,3.50
2023-01-17T09:06:06.946Z,3.55
2023-01-17T09:08:34.775Z,3.10
2023-01-17T09:11:10.870Z,3.58
2023-01-17T09:13:39.481Z,3.72
2023-01-17T09:16:06.856Z,4.95
2023-01-17T09:18:35.471Z,4.00
2023-01-17T09:21:21.365Z,3.65
2023-01-17T09:23:48.807Z,3.40
2023-01-17T09:26:22.808Z,3.22
2023-01-17T09:28:50.046Z,3.00
2023-01-17T09:31:17.726Z,4.18
2023-01-17T09:33:45.209Z,4.57
2023-01-17T09:36:13.572Z,4.03
2023-01-17T09:38:40.361Z,3.80
2023-01-17T09:41:36.167Z,3.17
2023-01-17T09:44:29.081Z,2.42
2023-01-17T09:47:00.105Z,2.55
2023-01-17T09:49:29.635Z,2.58
2023-01-17T09:51:56.541Z,2.38
2023-01-17T09:54:31.770Z,2.55
2023-01-17T09:57:23.764Z,2.50
2023-01-17T10:00:14.782Z,2.55
2023-01-17T10:03:11.801Z,4.18
2023-01-17T10:05:58.306Z,2.53
2023-01-17T10:08:40.666Z,2.83
2023-01-17T10:11:16.047Z,5.15
2023-01-17T10:13:58.084Z,5.10
2023-01-17T10:16:34.682Z,2.30
2023-01-17T10:19:20.579Z,2.30
2023-01-17T10:22:17.250Z,2.50
2023-01-17T10:25:08.051Z,2.22
2023-01-17T10:27:39.426Z,3.05
2023-01-17T10:30:36.690Z,2.30
2023-01-17T10:33:15.277Z,2.10
2023-01-17T10:36:08.585Z,2.30
2023-01-17T10:38:40.997Z,2.25
2023-01-17T10:41:43.247Z,2.20
2023-01-17T10:44:43.833Z,2.33
2023-01-17T10:47:10.509Z,2.63
2023-01-17T10:49:41.590Z,1.70
2023-01-17T10:52:33.077Z,2.20
2023-01-17T10:55:24.177Z,1.95
2023-01-17T10:57:53.733Z,2.33
2023-01-17T11:00:32.275Z,2.50
2023-01-17T11:03:00.681Z,2.00
2023-01-17T11:05:32.268Z,1.70
2023-01-17T11:08:01.094Z,1.90
2023-01-17T11:10:43.249Z,2.40
2023-01-17T11:13:36.937Z,1.90
2023-01-17T11:16:08.738Z,2.33
2023-01-17T11:18:38.415Z,2.13
2023-01-17T11:21:24.792Z,2.20
2023-01-17T11:23:56.785Z,2.33
2023-01-17T11:26:30.274Z,2.03
2023-01-17T11:29:23.781Z,1.40
2023-01-17T11:31:53.670Z,2.03
2023-01-17T11:34:25.590Z,3.30
2023-01-17T11:37:19.294Z,2.30
2023-01-17T11:39:48.235Z,2.35
2023-01-17T11:42:39.284Z,1.90
2023-01-17T11:45:28.555Z,1.50
2023-01-17T11:48:13.318Z,1.90
2023-01-17T11:50:42.904Z,2.05
2023-01-17T11:53:26.521Z,2.15
2023-01-17T11:56:20.956Z,1.65
2023-01-17T11:58:47.819Z,1.73
2023-01-17T12:01:33.310Z,2.10
2023-01-17T12:04:10.134Z,2.95
2023-01-17T12:07:05.943Z,2.88
2023-01-17T12:09:55.767Z,2.55
2023-01-17T12:13:07.287Z,2.42
2023-01-17T12:16:00.049Z,2.08
2023-01-17T12:18:44.785Z,2.00
2023-01-17T12:21:35.538Z,1.77
2023-01-17T12:24:36.097Z,1.95
2023-01-17T12:27:13.669Z,1.90
2023-01-17T12:29:53.621Z,1.67
2023-01-17T12:32:47.293Z,2.08
2023-01-17T12:35:22.910Z,1.70
2023-01-17T12:38:05.554Z,1.83
2023-01-17T12:40:39.197Z,3.25
2023-01-17T12:43:18.660Z,2.38
2023-01-17T12:45:48.312Z,1.55
2023-01-17T12:48:18.481Z,2.03
2023-01-17T12:51:01.009Z,1.60
2023-01-17T12:53:49.574Z,1.33
2023-01-17T12:56:37.298Z,1.45
2023-01-17T12:59:20.248Z,1.70
2023-01-17T13:02:00.569Z,1.92
2023-01-17T13:04:41.998Z,1.58
2023-01-17T13:07:44.573Z,1.25
2023-01-17T13:10:24.248Z,1.20
2023-01-17T13:12:52.579Z,1.50
2023-01-17T13:15:24.894Z,1.23
2023-01-17T13:18:07.304Z,0.70
2023-01-17T13:20:56.309Z,1.25
2023-01-17T13:23:31.101Z,0.90
2023-01-17T13:26:00.447Z,1.15
2023-01-17T13:29:07.171Z,0.95
2023-01-17T13:31:51.918Z,1.10
2023-01-17T13:34:27.139Z,1.33
2023-01-17T13:37:20.393Z,1.20
2023-01-17T13:40:18.337Z,1.15
2023-01-17T13:43:11.974Z,1.70
2023-01-17T13:45:39.840Z,1.58
2023-01-17T13:48:12.527Z,1.38
2023-01-17T13:50:42.063Z,1.83
2023-01-17T13:53:39.524Z,1.35
2023-01-17T13:56:18.673Z,1.20
2023-01-17T13:58:54.971Z,1.65
2023-01-17T14:01:24.694Z,1.20
2023-01-17T14:03:54.706Z,1.20
2023-01-17T14:06:44.870Z,1.45
2023-01-17T14:09:29.697Z,1.40
2023-01-17T14:12:15.181Z,1.63
2023-01-17T14:14:41.885Z,1.23
2023-01-17T14:17:22.825Z,1.40
2023-01-17T14:20:10.194Z,1.08
2023-01-17T14:22:41.718Z,1.95
2023-01-17T14:25:17.439Z,1.35
2023-01-17T14:27:55.301Z,1.40
2023-01-17T14:30:33.868Z,1.48
2023-01-17T14:33:04.820Z,1.23
2023-01-17T14:35:48.729Z,1.80
2023-01-17T14:38:23.006Z,1.60
2023-01-17T14:41:13.909Z,1.70
2023-01-17T14:43:43.049Z,1.52
2023-01-17T14:46:24.769Z,1.20
2023-01-17T14:48:58.707Z,1.67
2023-01-17T14:51:25.463Z,1.85
2023-01-17T14:53:57.518Z,1.70
2023-01-17T14:56:26.300Z,1.88
2023-01-17T14:59:14.804Z,1.42
2023-01-17T15:01:43.351Z,1.95
2023-01-17T15:04:30.529Z,1.65
2023-01-17T15:06:59.416Z,1.40
2023-01-17T15:09:39.244Z,1.40
2023-01-17T15:12:10.338Z,1.90
2023-01-17T15:14:39.919Z,2.08
2023-01-17T15:17:25.483Z,2.05
2023-01-17T15:20:03.334Z,1.25
2023-01-17T15:22:30.747Z,1.38
2023-01-17T15:24:59.018Z,1.88
2023-01-17T15:27:26.318Z,1.50
2023-01-17T15:29:54.129Z,2.05
2023-01-17T15:32:23.687Z,1.90
2023-01-17T15:34:51.805Z,1.42
2023-01-17T15:37:35.300Z,2.03
2023-01-17T15:40:12.193Z,2.23
2023-01-17T15:42:43.202Z,2.35
2023-01-17T15:45:16.690Z,2.47
2023-01-17T15:47:43.438Z,2.05
2023-01-17T15:50:31.269Z,2.08
2023-01-17T15:53:06.685Z,2.90
2023-01-17T15:55:40.045Z,10.73
2023-01-17T15:58:27.776Z,4.63
2023-01-17T16:00:55.515Z,3.70
2023-01-17T16:03:30.119Z,3.03
2023-01-17T16:06:00.203Z,3.30
2023-01-17T16:08:54.183Z,3.42
2023-01-17T16:11:21.750Z,3.40
2023-01-17T16:13:49.214Z,3.45
2023-01-17T16:16:24.088Z,5.13
2023-01-17T16:19:00.441Z,3.88
2023-01-17T16:21:29.430Z,5.60
2023-01-17T16:23:57.064Z,13.98
2023-01-17T16:26:24.410Z,10.50
2023-01-17T16:28:51.951Z,4.43
2023-01-17T16:31:18.814Z,3.60
2023-01-17T16:33:49.774Z,6.18
2023-01-17T16:36:16.880Z,2.72
2023-01-17T16:38:49.891Z,5.50
2023-01-17T16:41:16.717Z,6.35
2023-01-17T16:43:45.364Z,4.10
2023-01-17T16:46:13.733Z,3.28
2023-01-17T16:48:40.521Z,2.83
2023-01-17T16:51:08.207Z,8.13
2023-01-17T16:53:35.772Z,8.05
2023-01-17T16:56:09.182Z,5.20
2023-01-17T16:58:35.936Z,5.47
2023-01-17T17:01:02.817Z,13.05
2023-01-17T17:03:29.793Z,6.53
2023-01-17T17:06:01.145Z,4.20
2023-01-17T17:08:31.719Z,2.53
2023-01-17T17:11:19.256Z,5.55
2023-01-17T17:13:47.526Z,2.45
2023-01-17T17:16:26.969Z,6.47
2023-01-17T17:19:05.780Z,6.20
2023-01-17T17:21:34.328Z,8.93
2023-01-17T17:24:01.856Z,12.82
2023-01-17T17:26:32.431Z,17.27
2023-01-17T17:29:00.325Z,11.48
2023-01-17T17:31:27.312Z,9.93
2023-01-17T17:34:01.111Z,9.48
2023-01-17T17:36:28.476Z,7.68
2023-01-17T17:38:56.615Z,8.02
2023-01-17T17:41:26.119Z,9.27
2023-01-17T17:43:54.108Z,9.32
2023-01-17T17:46:22.533Z,10.35
2023-01-17T17:48:49.645Z,18.33
2023-01-17T17:51:26.332Z,10.20
2023-01-17T17:53:54.756Z,10.90
2023-01-17T17:56:23.477Z,9.82
2023-01-17T17:58:50.722Z,33.78
2023-01-17T18:01:19.295Z,13.07
2023-01-17T18:03:47.262Z,10.73
2023-01-17T18:06:13.964Z,10.70
2023-01-17T18:08:40.697Z,10.35
2023-01-17T18:11:14.997Z,11.13
2023-01-17T18:13:43.325Z,9.52
2023-01-17T18:16:13.668Z,10.52
2023-01-17T18:18:44.098Z,9.25
2023-01-17T18:21:16.114Z,9.80
2023-01-17T18:23:44.772Z,9.23
2023-01-17T18:26:20.996Z,8.75
2023-01-17T18:28:48.702Z,9.27
2023-01-17T18:31:15.923Z,7.40
2023-01-17T18:33:42.688Z,10.25
2023-01-17T18:36:12.722Z,9.50
2023-01-17T18:38:46.361Z,10.20
2023-01-17T18:41:18.783Z,8.85
2023-01-17T18:43:50.511Z,6.72
2023-01-17T18:46:20.305Z,4.68
2023-01-17T18:48:47.522Z,5.18
2023-01-17T18:51:16.716Z,4.68
2023-01-17T18:53:45.949Z,4.45
2023-01-17T18:56:22.056Z,7.47
2023-01-17T18:58:50.434Z,6.57
2023-01-17T19:01:22.734Z,7.45
2023-01-17T19:03:51.988Z,7.80
2023-01-17T19:06:21.917Z,8.80
2023-01-17T19:08:51.828Z,12.68
2023-01-17T19:11:20.590Z,9.57
2023-01-17T19:13:50.261Z,9.90
2023-01-17T19:16:24.569Z,9.27
2023-01-17T19:18:53.617Z,9.98
2023-01-17T19:21:23.010Z,9.38
2023-01-17T19:23:50.651Z,9.00
2023-01-17T19:26:19.888Z,8.18
2023-01-17T19:28:48.372Z,8.90
2023-01-17T19:31:25.058Z,9.75
2023-01-17T19:33:57.277Z,9.23
2023-01-17T19:36:27.049Z,8.93
2023-01-17T19:39:03.971Z,9.23
2023-01-17T19:41:32.184Z,9.40
2023-01-17T19:44:01.215Z,11.25
2023-01-17T19:46:28.202Z,12.63
2023-01-17T19:48:56.449Z,8.57
2023-01-17T19:51:24.308Z,6.63
2023-01-17T19:53:51.062Z,6.50
2023-01-17T19:56:20.637Z,6.50
2023-01-17T19:58:48.235Z,7.40
2023-01-17T20:01:21.787Z,8.25
2023-01-17T20:03:49.724Z,9.27
2023-01-17T20:06:19.612Z,9.20
2023-01-17T20:08:46.550Z,7.47
2023-01-17T20:11:17.528Z,7.97
2023-01-17T20:13:45.230Z,8.30
2023-01-17T20:16:14.684Z,7.68
2023-01-17T20:18:41.702Z,7.95
2023-01-17T20:21:14.677Z,7.65
2023-01-17T20:23:43.319Z,7.97
2023-01-17T20:26:15.201Z,7.28
2023-01-17T20:28:43.533Z,7.88
2023-01-17T20:31:12.934Z,7.65
2023-01-17T20:33:42.023Z,7.65
2023-01-17T20:36:12.875Z,8.63
2023-01-17T20:38:45.705Z,12.98
2023-01-17T20:41:18.092Z,8.52
2023-01-17T20:43:47.707Z,7.88
2023-01-17T20:46:15.705Z,7.68
2023-01-17T20:48:47.075Z,7.35
2023-01-17T20:51:15.508Z,7.40
2023-01-17T20:53:43.684Z,7.47
2023-01-17T20:56:13.091Z,7.10
2023-01-17T20:58:42.193Z,6.00
2023-01-17T21:01:11.131Z,6.55
2023-01-17T21:03:39.157Z,6.57
2023-01-17T21:06:08.212Z,6.35
2023-01-17T21:08:37.469Z,6.75
2023-01-17T21:11:05.248Z,7.18
2023-01-17T21:13:32.357Z,6.93
2023-01-17T21:16:00.123Z,7.40
2023-01-17T21:18:28.254Z,6.80
2023-01-17T21:20:55.034Z,6.55
2023-01-17T21:23:23.523Z,6.85
2023-01-17T21:25:59.097Z,6.63
2023-01-17T21:28:28.709Z,6.15
2023-01-17T21:30:55.603Z,6.65
2023-01-17T21:33:24.493Z,6.05
2023-01-17T21:35:51.903Z,7.32
2023-01-17T21:38:19.162Z,8.02
2023-01-17T21:40:46.177Z,7.13
2023-01-17T21:43:14.232Z,9.43
2023-01-17T21:45:42.127Z,8.88
2023-01-17T21:48:14.728Z,7.10
2023-01-17T21:50:41.933Z,7.40
2023-01-17T21:53:10.147Z,6.95
2023-01-17T21:55:56.563Z,7.85
2023-01-17T21:58:42.804Z,8.18
2023-01-17T22:01:22.386Z,8.40
2023-01-17T22:03:54.776Z,7.00
2023-01-17T22:06:24.538Z,6.18
2023-01-17T22:08:51.500Z,7.53
2023-01-17T22:11:21.432Z,6.80
2023-01-17T22:13:48.501Z,7.90
2023-01-17T22:16:18.132Z,9.32
2023-01-17T22:18:46.015Z,9.20
2023-01-17T22:21:13.856Z,13.60
2023-01-17T22:23:45.199Z,12.82
2023-01-17T22:26:11.918Z,13.10
2023-01-17T22:28:40.872Z,12.65
2023-01-17T22:31:13.235Z,11.05
2023-01-17T22:33:43.178Z,13.00
2023-01-17T22:36:13.635Z,12.13
2023-01-17T22:38:44.821Z,11.63
2023-01-17T22:41:16.505Z,11.35
2023-01-17T22:43:45.301Z,36.80
2023-01-17T22:46:14.620Z,37.40
2023-01-17T22:48:41.713Z,14.20
2023-01-17T22:51:12.386Z,11.48
2023-01-17T22:53:44.234Z,11.18
2023-01-17T22:56:17.207Z,11.25
2023-01-17T22:58:49.248Z,9.57
2023-01-17T23:01:24.758Z,9.30
2023-01-17T23:04:04.732Z,8.77
2023-01-17T23:06:37.857Z,8.18
2023-01-17T23:09:11.041Z,9.13
2023-01-17T23:11:41.231Z,8.13
2023-01-17T23:14:23.335Z,9.02
2023-01-17T23:17:09.857Z,9.52
2023-01-17T23:19:39.131Z,9.13
2023-01-17T23:22:22.461Z,9.15
2023-01-17T23:24:51.926Z,10.23
2023-01-17T23:27:41.077Z,9.70
2023-01-17T23:30:16.683Z,10.38
2023-01-17T23:32:46.524Z,9.45
2023-01-17T23:35:14.213Z,8.65
2023-01-17T23:37:59.452Z,9.50
2023-01-17T23:40:29.751Z,10.32
2023-01-17T23:43:15.227Z,9.50
2023-01-17T23:45:43.007Z,11.23
2023-01-17T23:48:10.882Z,11.32
2023-01-17T23:50:42.575Z,10.75
2023-01-17T23:53:10.911Z,9.27
2023-01-17T23:55:42.672Z,10.30
2023-01-17T23:58:11.665Z,9.80
